createdAt,value
2023-01-13T00:00:32.882Z,3.10
2023-01-13T00:02:59.302Z,3.15
2023-01-13T00:05:26.709Z,3.08
2023-01-13T00:07:53.075Z,4.22
2023-01-13T00:10:19.421Z,4.63
2023-01-13T00:12:45.812Z,3.92
2023-01-13T00:15:13.358Z,3.92
2023-01-13T00:17:39.735Z,3.55
2023-01-13T00:20:06.920Z,4.35
2023-01-13T00:22:34.863Z,4.47
2023-01-13T00:27:28.153Z,3.95
2023-01-13T00:29:54.532Z,4.28
2023-01-13T00:32:21.325Z,3.92
2023-01-13T00:34:47.628Z,3.22
2023-01-13T00:37:14.604Z,3.90
2023-01-13T00:39:41.398Z,3.30
2023-01-13T00:42:26.546Z,3.53
2023-01-13T00:44:52.895Z,3.67
2023-01-13T00:47:19.334Z,3.78
2023-01-13T00:49:45.683Z,3.15
2023-01-13T00:52:12.184Z,3.17
2023-01-13T00:54:38.527Z,3.30
2023-01-13T00:57:04.976Z,4.15
2023-01-13T00:59:31.277Z,3.33
2023-01-13T01:01:57.731Z,3.25
2023-01-13T01:04:24.213Z,3.80
2023-01-13T01:06:50.777Z,3.47
2023-01-13T01:09:17.505Z,4.70
2023-01-13T01:11:44.102Z,2.75
2023-01-13T01:14:11.674Z,3.40
2023-01-13T01:16:38.333Z,3.97
2023-01-13T01:19:05.139Z,4.38
2023-01-13T01:21:31.758Z,5.40
2023-01-13T01:23:59.605Z,4.25
2023-01-13T01:26:26.515Z,4.82
2023-01-13T01:28:52.922Z,3.65
2023-01-13T01:31:20.537Z,3.63
2023-01-13T01:33:47.667Z,4.70
2023-01-13T01:36:15.235Z,3.80
2023-01-13T01:38:41.703Z,3.80
2023-01-13T01:41:08.124Z,3.63
2023-01-13T01:44:00.426Z,4.10
2023-01-13T01:46:28.124Z,3.78
2023-01-13T01:48:57.007Z,3.40
2023-01-13T01:51:23.457Z,3.78
2023-01-13T01:53:50.537Z,4.10
2023-01-13T01:56:17.805Z,4.00
2023-01-13T01:58:47.063Z,3.85
2023-01-13T02:01:14.075Z,4.13
2023-01-13T02:03:41.972Z,3.90
2023-01-13T02:06:08.434Z,3.60
2023-01-13T02:08:35.520Z,3.85
2023-01-13T02:11:01.854Z,3.53
2023-01-13T02:13:28.221Z,3.83
2023-01-13T02:16:08.439Z,4.82
2023-01-13T02:18:37.706Z,4.45
2023-01-13T02:21:22.790Z,3.75
2023-01-13T02:24:21.495Z,3.72
2023-01-13T02:26:47.830Z,3.63
2023-01-13T02:29:42.428Z,4.70
2023-01-13T02:32:31.872Z,4.13
2023-01-13T02:35:12.436Z,3.88
2023-01-13T02:37:40.481Z,4.03
2023-01-13T02:42:52.524Z,4.43
2023-01-13T02:45:36.107Z,3.95
2023-01-13T02:48:03.344Z,3.90
2023-01-13T02:50:34.535Z,3.47
2023-01-13T02:53:03.848Z,3.55
2023-01-13T02:55:33.095Z,3.35
2023-01-13T02:58:01.086Z,3.05
2023-01-13T03:02:53.836Z,3.40
2023-01-13T03:05:20.280Z,3.65
2023-01-13T03:07:53.519Z,3.53
2023-01-13T03:10:24.985Z,3.20
2023-01-13T03:13:06.512Z,2.80
2023-01-13T03:15:40.425Z,2.97
2023-01-13T03:18:17.699Z,3.53
2023-01-13T03:20:49.382Z,3.70
2023-01-13T03:23:28.819Z,2.90
2023-01-13T03:26:08.520Z,2.90
2023-01-13T03:28:41.307Z,3.75
2023-01-13T03:31:11.841Z,4.85
2023-01-13T03:33:45.353Z,3.88
2023-01-13T03:36:12.772Z,2.58
2023-01-13T03:38:44.208Z,2.40
2023-01-13T03:41:13.374Z,3.35
2023-01-13T03:44:06.515Z,3.38
2023-01-13T03:46:37.460Z,3.30
2023-01-13T03:49:05.539Z,4.13
2023-01-13T03:51:33.736Z,4.03
2023-01-13T03:54:03.073Z,3.90
2023-01-13T03:56:58.782Z,4.18
2023-01-13T03:59:28.269Z,4.28
2023-01-13T04:01:59.733Z,5.03
2023-01-13T04:04:28.988Z,3.63
2023-01-13T04:06:55.316Z,2.97
2023-01-13T04:09:40.192Z,2.90
2023-01-13T04:12:07.413Z,3.22
2023-01-13T04:14:34.710Z,3.05
2023-01-13T04:17:01.065Z,3.55
2023-01-13T04:19:27.476Z,4.10
2023-01-13T04:21:53.881Z,4.82
2023-01-13T04:24:20.251Z,4.95
2023-01-13T04:26:46.622Z,4.50
2023-01-13T04:29:15.466Z,5.03
2023-01-13T04:31:42.793Z,5.70
2023-01-13T04:34:10.484Z,5.63
2023-01-13T04:36:37.121Z,4.57
2023-01-13T04:39:03.693Z,5.45
2023-01-13T04:41:50.131Z,5.55
2023-01-13T04:44:16.578Z,4.55
2023-01-13T04:46:42.941Z,5.57
2023-01-13T04:49:09.319Z,5.32
2023-01-13T04:51:35.676Z,5.20
2023-01-13T04:54:02.014Z,5.03
2023-01-13T04:56:28.348Z,5.72
2023-01-13T04:58:54.731Z,5.95
2023-01-13T05:01:21.500Z,5.60
2023-01-13T05:03:47.946Z,5.82
2023-01-13T05:06:14.292Z,4.97
2023-01-13T05:08:40.619Z,6.20
2023-01-13T05:11:26.972Z,4.88
2023-01-13T05:14:11.777Z,5.03
2023-01-13T05:16:56.779Z,3.50
2023-01-13T05:19:23.142Z,4.32
2023-01-13T05:22:08.373Z,4.15
2023-01-13T05:24:53.163Z,3.85
2023-01-13T05:27:19.514Z,4.03
2023-01-13T05:29:45.903Z,3.28
2023-01-13T05:32:12.345Z,3.17
2023-01-13T05:34:38.706Z,3.55
2023-01-13T05:37:07.695Z,3.58
2023-01-13T05:39:54.071Z,2.95
2023-01-13T05:42:39.185Z,3.75
2023-01-13T05:45:05.798Z,4.28
2023-01-13T05:47:32.462Z,4.35
2023-01-13T05:49:58.858Z,3.83
2023-01-13T05:52:25.294Z,4.05
2023-01-13T05:54:51.626Z,4.07
2023-01-13T05:57:17.970Z,4.15
2023-01-13T05:59:44.321Z,3.83
2023-01-13T06:02:10.644Z,3.97
2023-01-13T06:04:37.159Z,3.78
2023-01-13T06:07:03.552Z,3.47
2023-01-13T06:09:29.867Z,3.45
2023-01-13T06:11:56.237Z,3.50
2023-01-13T06:14:23.131Z,3.17
2023-01-13T06:16:49.497Z,3.35
2023-01-13T06:19:15.925Z,3.47
2023-01-13T06:21:44.853Z,3.88
2023-01-13T06:24:11.173Z,3.40
2023-01-13T06:26:39.097Z,3.85
2023-01-13T06:29:05.549Z,3.42
2023-01-13T06:31:33.920Z,3.60
2023-01-13T06:34:02.648Z,3.83
2023-01-13T06:36:35.733Z,3.33
2023-01-13T06:39:03.053Z,3.60
2023-01-13T06:41:49.330Z,3.40
2023-01-13T06:44:15.741Z,3.78
2023-01-13T06:46:42.164Z,3.65
2023-01-13T06:49:08.600Z,3.67
2023-01-13T06:51:35.050Z,3.15
2023-01-13T06:54:01.409Z,3.50
2023-01-13T06:56:27.753Z,4.03
2023-01-13T06:58:54.079Z,3.33
2023-01-13T07:01:20.506Z,3.95
2023-01-13T07:03:47.079Z,3.50
2023-01-13T07:06:13.481Z,4.10
2023-01-13T07:08:39.880Z,3.20
2023-01-13T07:11:07.000Z,3.70
2023-01-13T07:13:53.254Z,3.43
2023-01-13T07:16:19.646Z,3.95
2023-01-13T07:18:46.011Z,3.50
2023-01-13T07:21:18.849Z,3.58
2023-01-13T07:23:45.941Z,3.50
2023-01-13T07:26:13.058Z,3.63
2023-01-13T07:28:39.588Z,3.63
2023-01-13T07:31:06.588Z,3.55
2023-01-13T07:33:33.224Z,3.28
2023-01-13T07:36:04.608Z,3.85
2023-01-13T07:38:31.496Z,2.30
2023-01-13T07:40:57.946Z,3.63
2023-01-13T07:43:33.545Z,3.40
2023-01-13T07:46:00.927Z,3.40
2023-01-13T07:48:27.882Z,3.08
2023-01-13T07:50:54.679Z,3.03
2023-01-13T07:53:21.659Z,2.83
2023-01-13T07:55:48.543Z,3.70
2023-01-13T07:58:14.878Z,4.20
2023-01-13T08:00:41.352Z,3.92
2023-01-13T08:03:07.789Z,3.80
2023-01-13T08:05:37.317Z,3.75
2023-01-13T08:08:03.743Z,3.45
2023-01-13T08:10:30.140Z,3.75
2023-01-13T08:13:15.218Z,3.80
2023-01-13T08:15:41.597Z,3.25
2023-01-13T08:18:08.004Z,3.33
2023-01-13T08:20:34.692Z,3.33
2023-01-13T08:23:01.307Z,3.10
2023-01-13T08:25:28.742Z,3.40
2023-01-13T08:27:55.142Z,4.05
2023-01-13T08:30:21.551Z,2.85
2023-01-13T08:32:48.968Z,2.92
2023-01-13T08:35:16.532Z,3.08
2023-01-13T08:37:43.609Z,3.10
2023-01-13T08:40:10.573Z,3.07
2023-01-13T08:42:38.065Z,3.97
2023-01-13T08:45:05.169Z,3.83
2023-01-13T08:47:31.509Z,3.60
2023-01-13T08:49:57.843Z,4.22
2023-01-13T08:52:24.217Z,3.95
2023-01-13T08:54:50.578Z,3.70
2023-01-13T08:57:19.442Z,4.05
2023-01-13T08:59:46.275Z,2.50
2023-01-13T09:02:13.973Z,2.97
2023-01-13T09:04:40.604Z,3.25
2023-01-13T09:07:07.009Z,3.00
2023-01-13T09:09:33.383Z,2.92
2023-01-13T09:12:18.279Z,3.67
2023-01-13T09:14:44.772Z,3.80
2023-01-13T09:17:11.242Z,3.40
2023-01-13T09:19:37.705Z,3.10
2023-01-13T09:22:04.135Z,2.97
2023-01-13T09:24:30.862Z,3.13
2023-01-13T09:26:57.245Z,3.55
2023-01-13T09:29:23.609Z,2.67
2023-01-13T09:31:50.060Z,3.25
2023-01-13T09:34:36.410Z,3.08
2023-01-13T09:37:03.364Z,3.40
2023-01-13T09:39:29.753Z,2.80
2023-01-13T09:42:16.435Z,3.78
2023-01-13T09:44:45.576Z,3.57
2023-01-13T09:47:16.912Z,3.40
2023-01-13T09:49:43.483Z,3.88
2023-01-13T09:52:15.010Z,2.95
2023-01-13T09:54:59.774Z,3.10
2023-01-13T09:57:27.585Z,3.10
2023-01-13T10:02:33.797Z,3.08
2023-01-13T10:05:10.580Z,2.97
2023-01-13T10:07:38.376Z,2.87
2023-01-13T10:12:50.514Z,2.65
2023-01-13T10:15:17.975Z,2.92
2023-01-13T10:17:44.322Z,3.05
2023-01-13T10:20:10.702Z,3.13
2023-01-13T10:22:42.947Z,3.13
2023-01-13T10:25:32.023Z,4.22
2023-01-13T10:28:04.188Z,3.60
2023-01-13T10:30:35.340Z,3.22
2023-01-13T10:33:06.371Z,2.33
2023-01-13T10:35:48.884Z,2.80
2023-01-13T10:38:38.661Z,2.88
2023-01-13T10:41:24.821Z,2.60
2023-01-13T10:43:57.310Z,2.72
2023-01-13T10:46:23.721Z,2.60
2023-01-13T10:48:57.104Z,2.30
2023-01-13T10:51:29.547Z,3.42
2023-01-13T10:53:55.966Z,2.95
2023-01-13T10:56:23.942Z,2.70
2023-01-13T10:58:50.371Z,2.55
2023-01-13T11:01:21.759Z,2.35
2023-01-13T11:03:48.297Z,2.40
2023-01-13T11:06:21.891Z,1.87
2023-01-13T11:08:50.021Z,1.95
2023-01-13T11:11:27.245Z,1.92
2023-01-13T11:14:13.942Z,1.83
2023-01-13T11:16:52.746Z,2.00
2023-01-13T11:19:21.541Z,2.00
2023-01-13T11:21:51.011Z,2.30
2023-01-13T11:24:29.779Z,2.05
2023-01-13T11:27:01.894Z,2.20
2023-01-13T11:29:51.144Z,2.90
2023-01-13T11:32:21.762Z,2.80
2023-01-13T11:34:52.396Z,2.92
2023-01-13T11:37:24.770Z,2.83
2023-01-13T11:39:53.839Z,3.15
2023-01-13T11:42:24.474Z,2.85
2023-01-13T11:44:55.807Z,3.00
2023-01-13T11:47:24.268Z,2.95
2023-01-13T11:49:50.682Z,3.30
2023-01-13T11:52:21.483Z,2.80
2023-01-13T11:54:55.274Z,2.90
2023-01-13T11:57:24.732Z,3.42
2023-01-13T12:00:00.276Z,3.15
2023-01-13T12:02:45.380Z,2.70
2023-01-13T12:05:35.994Z,2.88
2023-01-13T12:08:23.501Z,3.10
2023-01-13T12:11:03.160Z,2.40
2023-01-13T12:13:36.159Z,2.88
2023-01-13T12:16:11.610Z,3.00
2023-01-13T12:18:46.908Z,2.50
2023-01-13T12:21:23.071Z,2.53
2023-01-13T12:24:01.835Z,2.30
2023-01-13T12:26:30.031Z,2.58
2023-01-13T12:28:57.991Z,2.50
2023-01-13T12:31:25.098Z,2.83
2023-01-13T12:33:57.358Z,3.03
2023-01-13T12:36:53.344Z,2.38
2023-01-13T12:39:40.350Z,3.05
2023-01-13T12:42:46.615Z,2.88
2023-01-13T12:45:12.944Z,3.60
2023-01-13T12:47:41.372Z,3.42
2023-01-13T12:50:26.028Z,2.83
2023-01-13T12:52:52.401Z,3.25
2023-01-13T12:55:22.862Z,2.85
2023-01-13T12:57:56.467Z,2.90
2023-01-13T13:00:23.028Z,2.90
2023-01-13T13:03:09.236Z,2.67
2023-01-13T13:05:41.641Z,3.27
2023-01-13T13:08:07.977Z,2.60
2023-01-13T13:10:38.984Z,2.35
2023-01-13T13:13:19.975Z,2.28
2023-01-13T13:15:47.305Z,2.75
2023-01-13T13:18:20.832Z,2.72
2023-01-13T13:20:56.142Z,2.20
2023-01-13T13:23:37.855Z,2.67
2023-01-13T13:26:04.681Z,3.05
2023-01-13T13:28:35.322Z,2.78
2023-01-13T13:31:24.117Z,2.28
2023-01-13T13:33:58.359Z,2.42
2023-01-13T13:36:43.049Z,2.75
2023-01-13T13:39:40.014Z,2.67
2023-01-13T13:42:44.740Z,2.85
2023-01-13T13:45:33.640Z,2.83
2023-01-13T13:48:01.013Z,2.60
2023-01-13T13:50:30.296Z,2.95
2023-01-13T13:53:08.191Z,2.95
2023-01-13T13:55:34.722Z,3.20
2023-01-13T13:58:01.702Z,2.63
2023-01-13T14:00:30.318Z,3.08
2023-01-13T14:02:58.738Z,2.83
2023-01-13T14:05:33.061Z,2.92
2023-01-13T14:07:59.485Z,2.97
2023-01-13T14:10:36.540Z,2.85
2023-01-13T14:13:13.331Z,2.60
2023-01-13T14:15:41.002Z,2.80
2023-01-13T14:20:34.612Z,2.78
2023-01-13T14:23:01.689Z,2.80
2023-01-13T14:25:33.420Z,3.42
2023-01-13T14:28:03.756Z,3.28
2023-01-13T14:30:30.162Z,2.72
2023-01-13T14:32:56.996Z,2.97
2023-01-13T14:35:23.438Z,2.90
2023-01-13T14:37:50.562Z,3.75
2023-01-13T14:40:36.179Z,3.20
2023-01-13T14:43:03.491Z,2.70
2023-01-13T14:45:33.030Z,3.50
2023-01-13T14:48:00.942Z,3.17
2023-01-13T14:50:31.548Z,2.63
2023-01-13T14:52:58.302Z,2.80
2023-01-13T14:55:36.408Z,2.70
2023-01-13T14:58:21.649Z,2.47
2023-01-13T15:00:48.718Z,3.00
2023-01-13T15:03:15.854Z,2.45
2023-01-13T15:05:49.951Z,2.80
2023-01-13T15:08:17.249Z,2.75
2023-01-13T15:10:48.494Z,2.95
2023-01-13T15:13:26.215Z,3.50
2023-01-13T15:15:54.641Z,3.05
2023-01-13T15:18:21.035Z,2.47
2023-01-13T15:20:47.529Z,3.20
2023-01-13T15:23:13.897Z,2.50
2023-01-13T15:25:42.036Z,2.67
2023-01-13T15:28:16.721Z,3.08
2023-01-13T15:30:43.239Z,3.00
2023-01-13T15:33:10.809Z,2.75
2023-01-13T15:35:37.472Z,3.05
2023-01-13T15:38:09.728Z,3.28
2023-01-13T15:40:36.037Z,3.15
2023-01-13T15:43:21.053Z,2.78
2023-01-13T15:46:05.919Z,3.15
2023-01-13T15:48:32.941Z,3.40
2023-01-13T15:51:00.242Z,3.40
2023-01-13T15:53:27.880Z,3.30
2023-01-13T15:55:55.683Z,4.93
2023-01-13T15:58:24.636Z,6.55
2023-01-13T16:00:51.079Z,5.95
2023-01-13T16:03:17.525Z,8.07
2023-01-13T16:05:44.375Z,10.77
2023-01-13T16:08:15.450Z,7.28
2023-01-13T16:10:42.306Z,6.55
2023-01-13T16:13:08.753Z,8.48
2023-01-13T16:15:35.217Z,6.75
2023-01-13T16:18:03.426Z,6.72
2023-01-13T16:20:29.863Z,7.40
2023-01-13T16:22:56.261Z,5.80
2023-01-13T16:25:23.922Z,5.28
2023-01-13T16:27:50.810Z,4.57
2023-01-13T16:30:23.169Z,5.63
2023-01-13T16:32:49.555Z,5.07
2023-01-13T16:35:16.134Z,5.00
2023-01-13T16:37:45.264Z,4.85
2023-01-13T16:40:17.823Z,4.25
2023-01-13T16:42:44.157Z,5.07
2023-01-13T16:45:10.712Z,4.60
2023-01-13T16:47:37.317Z,7.40
2023-01-13T16:50:03.922Z,9.57
2023-01-13T16:52:30.267Z,8.05
2023-01-13T16:54:56.613Z,5.18
2023-01-13T16:57:22.998Z,5.35
2023-01-13T16:59:49.451Z,7.07
2023-01-13T17:02:19.662Z,8.50
2023-01-13T17:04:47.162Z,6.13
2023-01-13T17:07:16.322Z,5.22
2023-01-13T17:09:42.667Z,6.68
2023-01-13T17:12:09.976Z,6.40
2023-01-13T17:14:36.315Z,6.43
2023-01-13T17:17:02.710Z,5.35
2023-01-13T17:19:29.041Z,7.90
2023-01-13T17:21:55.410Z,6.10
2023-01-13T17:24:21.868Z,6.45
2023-01-13T17:26:49.985Z,5.45
2023-01-13T17:29:17.534Z,5.60
2023-01-13T17:31:44.046Z,5.22
2023-01-13T17:34:11.182Z,5.00
2023-01-13T17:36:37.579Z,4.83
2023-01-13T17:39:03.996Z,6.15
2023-01-13T17:41:30.614Z,5.32
2023-01-13T17:43:56.966Z,5.93
2023-01-13T17:46:23.370Z,13.63
2023-01-13T17:48:50.945Z,6.13
2023-01-13T17:51:17.571Z,6.32
2023-01-13T17:53:45.491Z,5.40
2023-01-13T17:56:12.972Z,5.45
2023-01-13T17:58:40.154Z,5.40
2023-01-13T18:01:07.542Z,4.57
2023-01-13T18:03:33.954Z,4.63
2023-01-13T18:06:07.348Z,5.00
2023-01-13T18:08:33.675Z,5.63
2023-01-13T18:11:00.780Z,5.78
2023-01-13T18:13:28.084Z,5.30
2023-01-13T18:16:11.227Z,6.18
2023-01-13T18:18:38.495Z,5.20
2023-01-13T18:21:24.239Z,4.88
2023-01-13T18:24:09.130Z,4.72
2023-01-13T18:26:53.868Z,5.38
2023-01-13T18:29:20.435Z,5.93
2023-01-13T18:31:46.798Z,5.85
2023-01-13T18:34:13.133Z,6.60
2023-01-13T18:36:39.590Z,6.72
2023-01-13T18:39:05.965Z,8.07
2023-01-13T18:41:51.043Z,7.70
2023-01-13T18:44:17.416Z,7.57
2023-01-13T18:46:43.786Z,6.80
2023-01-13T18:49:10.148Z,6.05
2023-01-13T18:51:37.402Z,5.60
2023-01-13T18:54:03.803Z,5.95
2023-01-13T18:56:31.123Z,5.82
2023-01-13T18:58:57.763Z,5.53
2023-01-13T19:01:25.728Z,6.32
2023-01-13T19:06:18.486Z,5.35
2023-01-13T19:08:45.274Z,5.72
2023-01-13T19:11:11.705Z,4.53
2023-01-13T19:13:38.053Z,5.15
2023-01-13T19:16:07.970Z,7.28
2023-01-13T19:18:34.494Z,8.02
2023-01-13T19:21:02.019Z,14.02
2023-01-13T19:23:28.472Z,10.45
2023-01-13T19:25:54.894Z,13.30
2023-01-13T19:28:22.066Z,7.53
2023-01-13T19:30:50.655Z,5.10
2023-01-13T19:33:17.245Z,4.07
2023-01-13T19:35:43.644Z,5.30
2023-01-13T19:38:10.005Z,5.05
2023-01-13T19:40:36.344Z,5.80
2023-01-13T19:43:21.404Z,7.45
2023-01-13T19:45:50.983Z,7.05
2023-01-13T19:48:17.335Z,8.55
2023-01-13T19:50:43.710Z,7.75
2023-01-13T19:53:15.842Z,6.55
2023-01-13T19:55:47.680Z,4.68
2023-01-13T19:58:14.036Z,4.75
2023-01-13T20:00:47.049Z,4.53
2023-01-13T20:03:13.977Z,4.55
2023-01-13T20:05:40.380Z,4.68
2023-01-13T20:08:06.717Z,4.50
2023-01-13T20:10:33.132Z,4.75
2023-01-13T20:12:59.476Z,4.85
2023-01-13T20:15:25.832Z,4.60
2023-01-13T20:17:52.177Z,5.15
2023-01-13T20:20:20.400Z,4.93
2023-01-13T20:22:46.757Z,4.55
2023-01-13T20:25:16.773Z,4.90
2023-01-13T20:27:43.895Z,4.80
2023-01-13T20:30:13.342Z,5.40
2023-01-13T20:32:42.800Z,4.28
2023-01-13T20:35:09.744Z,4.45
2023-01-13T20:37:40.150Z,5.00
2023-01-13T20:40:07.423Z,5.38
2023-01-13T20:42:42.438Z,4.90
2023-01-13T20:45:09.107Z,4.60
2023-01-13T20:47:35.532Z,4.20
2023-01-13T20:50:01.896Z,4.60
2023-01-13T20:52:28.274Z,4.93
2023-01-13T20:54:54.692Z,4.22
2023-01-13T20:57:21.070Z,4.90
2023-01-13T20:59:47.482Z,4.55
2023-01-13T21:02:14.859Z,5.53
2023-01-13T21:04:41.377Z,4.85
2023-01-13T21:07:07.747Z,5.22
2023-01-13T21:09:34.126Z,6.05
2023-01-13T21:12:19.039Z,5.97
2023-01-13T21:15:03.891Z,5.97
2023-01-13T21:17:48.792Z,5.20
2023-01-13T21:20:15.365Z,6.20
2023-01-13T21:22:46.091Z,5.75
2023-01-13T21:25:12.939Z,5.63
2023-01-13T21:27:39.460Z,5.93
2023-01-13T21:30:06.315Z,5.57
2023-01-13T21:32:32.718Z,5.97
2023-01-13T21:34:59.169Z,5.55
2023-01-13T21:37:25.613Z,6.05
2023-01-13T21:39:52.160Z,5.07
2023-01-13T21:42:36.960Z,5.68
2023-01-13T21:45:22.370Z,5.13
2023-01-13T21:47:48.729Z,3.72
2023-01-13T21:50:16.801Z,4.35
2023-01-13T21:52:43.310Z,4.28
2023-01-13T21:55:28.410Z,4.40
2023-01-13T21:57:58.998Z,3.50
2023-01-13T22:00:26.821Z,3.92
2023-01-13T22:02:53.755Z,4.75
2023-01-13T22:05:21.379Z,4.57
2023-01-13T22:07:47.844Z,4.18
2023-01-13T22:10:15.754Z,4.45
2023-01-13T22:15:10.869Z,4.85
2023-01-13T22:17:37.238Z,4.32
2023-01-13T22:20:03.898Z,5.05
2023-01-13T22:22:36.437Z,5.18
2023-01-13T22:25:07.112Z,4.70
2023-01-13T22:27:39.203Z,4.22
2023-01-13T22:30:07.246Z,5.32
2023-01-13T22:32:35.206Z,3.72
2023-01-13T22:37:27.781Z,4.50
2023-01-13T22:39:54.111Z,3.60
2023-01-13T22:42:20.476Z,3.40
2023-01-13T22:44:46.891Z,3.17
2023-01-13T22:47:13.267Z,4.50
2023-01-13T22:49:39.636Z,3.55
2023-01-13T22:52:06.094Z,3.80
2023-01-13T22:54:32.471Z,3.05
2023-01-13T22:56:58.799Z,3.88
2023-01-13T22:59:25.262Z,3.40
2023-01-13T23:01:51.688Z,3.92
2023-01-13T23:04:18.169Z,5.00
2023-01-13T23:06:44.730Z,4.97
2023-01-13T23:09:11.169Z,3.53
2023-01-13T23:11:37.614Z,4.57
2023-01-13T23:14:05.276Z,5.30
2023-01-13T23:16:33.224Z,3.88
2023-01-13T23:21:27.390Z,4.90
2023-01-13T23:26:20.535Z,3.95
2023-01-13T23:28:47.182Z,4.22
2023-01-13T23:31:15.089Z,4.85
2023-01-13T23:36:09.335Z,4.15
2023-01-13T23:41:04.711Z,4.15
2023-01-13T23:43:31.018Z,4.00
2023-01-13T23:46:07.744Z,3.50
2023-01-13T23:48:34.429Z,4.50
2023-01-13T23:51:01.359Z,5.00
2023-01-13T23:53:33.259Z,4.15
2023-01-13T23:56:00.691Z,3.97
2023-01-13T23:58:27.708Z,4.47
